Time;durP1;ratioP1;P1;durP2;ratioP2;P2;SDS_P1;SDS_P2;PMS_P1;PMS_P2;Temp;Humidity;BMP_temperature;BMP_pressure;BME280_temperature;BME280_humidity;BME280_pressure;Samples;Min_cycle;Max_cycle;Signal;HPM_P1;HPM_P2
2023/04/20 00:01:46;;;;;;;;;4.25;1.25;;;;;22.35;37.29;101014.81;5077054;27;45295;-69
2023/04/20 00:04:11;;;;;;;;;1.50;1.50;;;;;22.33;37.34;101000.75;5062230;28;45452;-69
2023/04/20 00:06:37;;;;;;;;;1.25;1.25;;;;;22.32;37.42;101004.34;5078148;27;46368;-69
2023/04/20 00:09:03;;;;;;;;;3.00;3.00;;;;;22.34;37.60;101002.44;5077546;27;45481;-69
2023/04/20 00:11:29;;;;;;;;;1.00;1.00;;;;;22.35;37.64;101003.31;5057392;28;45493;-69
2023/04/20 00:13:54;;;;;;;;;2.25;1.25;;;;;22.31;37.40;100985.78;5063216;28;45502;-69
2023/04/20 00:16:19;;;;;;;;;4.75;2.75;;;;;22.32;37.62;100991.03;5079861;27;46051;-69
2023/04/20 00:18:46;;;;;;;;;1.00;1.00;;;;;22.31;37.30;100985.78;5065484;28;45412;-70
2023/04/20 00:21:12;;;;;;;;;2.00;2.00;;;;;22.33;37.85;100986.56;5061110;28;45318;-69
2023/04/20 00:23:37;;;;;;;;;2.75;1.50;;;;;22.32;37.77;100988.34;5050950;28;45457;-69
2023/04/20 00:26:03;;;;;;;;;1.25;0.25;;;;;22.31;37.61;100977.78;5074903;27;45504;-69
2023/04/20 00:28:28;;;;;;;;;3.25;1.25;;;;;22.33;37.64;100979.41;5076633;27;45484;-69
2023/04/20 00:30:54;;;;;;;;;1.25;1.25;;;;;22.32;37.33;100979.50;5074078;27;49482;-69
2023/04/20 00:33:19;;;;;;;;;2.00;2.00;;;;;22.33;37.45;100987.41;5079627;27;64312;-69
2023/04/20 00:35:44;;;;;;;;;1.00;1.00;;;;;22.28;37.46;100973.56;5074844;27;46227;-69
2023/04/20 00:38:10;;;;;;;;;3.50;2.00;;;;;22.31;37.44;100981.34;5074012;28;61273;-69
2023/04/20 00:40:35;;;;;;;;;1.50;1.00;;;;;22.24;37.70;100966.72;5074626;27;69342;-69
2023/04/20 00:43:14;;;;;;;;;2.00;1.00;;;;;22.31;37.45;100975.13;5078438;27;45458;-69
2023/04/20 00:45:39;;;;;;;;;2.00;2.00;;;;;22.30;37.56;100968.13;5075460;27;47892;-69
2023/04/20 00:48:05;;;;;;;;;1.25;1.25;;;;;22.30;37.25;100965.44;5076024;28;45411;-69
2023/04/20 00:50:30;;;;;;;;;2.00;1.00;;;;;22.30;37.52;100965.44;5074437;27;45568;-69
2023/04/20 00:52:56;;;;;;;;;0.25;0.25;;;;;22.29;37.42;100967.28;5064892;27;63155;-70
2023/04/20 00:55:22;;;;;;;;;3.00;2.00;;;;;22.29;37.22;100961.06;5078696;27;46290;-69
2023/04/20 00:57:48;;;;;;;;;1.25;1.25;;;;;22.30;37.18;100971.63;5081072;27;45453;-69
2023/04/20 01:00:13;;;;;;;;;3.50;2.00;;;;;22.29;37.46;100969.94;5082413;27;47042;-69
2023/04/20 01:02:40;;;;;;;;;2.25;1.25;;;;;22.27;37.59;100961.19;5072055;28;45671;-70
2023/04/20 01:05:05;;;;;;;;;2.25;1.00;;;;;22.27;37.26;100963.84;5076563;27;47035;-69
2023/04/20 01:07:31;;;;;;;;;4.00;1.00;;;;;22.29;37.23;100963.72;5079770;28;45373;-69
2023/04/20 01:09:56;;;;;;;;;0.00;0.00;;;;;22.27;37.39;100963.00;5077616;27;45647;-69
2023/04/20 01:12:22;;;;;;;;;2.50;1.00;;;;;22.28;37.24;100964.72;5069896;28;48845;-69
2023/04/20 01:14:47;;;;;;;;;2.00;1.00;;;;;22.27;37.79;100963.00;5076181;27;71965;-69
2023/04/20 01:17:13;;;;;;;;;1.50;1.50;;;;;22.28;37.26;100960.22;5061055;28;63549;-69
2023/04/20 01:19:39;;;;;;;;;1.50;1.00;;;;;22.20;37.67;100951.88;5068269;27;45465;-70
2023/04/20 01:22:06;;;;;;;;;1.25;1.25;;;;;22.27;37.70;100955.84;5075680;27;45593;-70
2023/04/20 01:24:32;;;;;;;;;1.00;1.00;;;;;22.24;37.35;100956.06;5076734;27;46452;-69
2023/04/20 01:26:57;;;;;;;;;2.00;1.50;;;;;22.23;37.63;100943.69;5076122;27;45591;-70
2023/04/20 01:29:23;;;;;;;;;2.00;2.00;;;;;22.26;37.51;100951.47;5080240;27;45359;-69
2023/04/20 01:31:48;;;;;;;;;2.00;1.00;;;;;22.26;36.97;100946.13;5076464;27;45594;-69
2023/04/20 01:34:14;;;;;;;;;1.00;1.00;;;;;22.26;37.03;100940.78;5076531;27;66891;-69
2023/04/20 01:36:39;;;;;;;;;1.25;1.25;;;;;22.24;37.06;100932.06;5074357;27;45481;-69
2023/04/20 01:39:04;;;;;;;;;1.25;1.25;;;;;22.26;37.12;100940.78;5080913;28;45540;-69
2023/04/20 01:41:30;;;;;;;;;0.25;0.25;;;;;22.27;36.99;100939.84;5072348;27;47021;-69
2023/04/20 01:43:55;;;;;;;;;2.00;2.00;;;;;22.25;37.10;100927.56;5077901;28;46058;-69
2023/04/20 01:46:21;;;;;;;;;1.25;0.75;;;;;22.26;37.18;100934.63;5070072;28;45378;-69
2023/04/20 01:48:46;;;;;;;;;1.00;1.00;;;;;22.24;37.36;100926.72;5078469;27;57615;-69
2023/04/20 01:51:11;;;;;;;;;2.00;1.00;;;;;22.27;37.20;100925.66;5072944;27;46217;-69
2023/04/20 01:53:37;;;;;;;;;0.75;0.75;;;;;22.22;37.52;100931.28;5077107;27;72512;-69
2023/04/20 01:56:02;;;;;;;;;2.00;2.00;;;;;22.22;37.49;100930.44;5076494;27;45353;-69
2023/04/20 01:58:28;;;;;;;;;2.00;2.00;;;;;22.24;37.35;100928.53;5075711;27;45399;-69
2023/04/20 02:00:53;;;;;;;;;1.00;1.00;;;;;22.25;37.02;100936.41;5057248;28;45575;-69
2023/04/20 02:03:18;;;;;;;;;3.00;2.00;;;;;22.24;37.12;100932.06;5068139;27;68179;-69
2023/04/20 02:05:44;;;;;;;;;1.75;1.00;;;;;22.22;37.05;100925.13;5072699;27;68612;-69
2023/04/20 02:08:09;;;;;;;;;2.25;0.25;;;;;22.21;37.04;100926.94;5074559;27;45402;-69
2023/04/20 02:10:35;;;;;;;;;1.00;1.00;;;;;22.21;37.37;100931.44;5071601;27;45560;-69
2023/04/20 02:13:00;;;;;;;;;2.00;1.00;;;;;22.24;37.14;100936.53;5074015;27;46620;-71
2023/04/20 02:15:25;;;;;;;;;3.00;2.00;;;;;22.22;37.02;100927.78;5075130;27;45234;-69
2023/04/20 02:17:51;;;;;;;;;1.25;1.25;;;;;22.18;36.92;100922.66;5078662;27;52840;-69
2023/04/20 02:20:18;;;;;;;;;2.00;2.00;;;;;22.23;37.06;100937.50;5077921;27;45564;-69
2023/04/20 02:22:44;;;;;;;;;2.00;1.25;;;;;22.19;36.82;100927.06;5075076;27;46450;-70
2023/04/20 02:25:09;;;;;;;;;1.00;1.00;;;;;22.21;36.89;100928.78;5074786;27;45501;-69
2023/04/20 02:27:35;;;;;;;;;2.50;2.00;;;;;22.21;37.08;100939.44;5076162;28;45412;-69
2023/04/20 02:30:00;;;;;;;;;1.00;1.00;;;;;22.19;37.21;100927.06;5076715;27;46147;-69
2023/04/20 02:32:26;;;;;;;;;1.00;1.00;;;;;22.22;36.73;100946.44;5077698;27;45361;-69
2023/04/20 02:34:52;;;;;;;;;1.00;1.00;;;;;22.20;37.01;100943.88;5074090;27;45393;-69
2023/04/20 02:37:17;;;;;;;;;1.50;1.50;;;;;22.21;37.34;100944.75;5074024;27;45484;-69
2023/04/20 02:39:42;;;;;;;;;3.25;1.25;;;;;22.19;36.96;100947.53;5059423;27;45551;-70
2023/04/20 02:42:08;;;;;;;;;2.50;1.00;;;;;22.18;37.10;100940.50;5076717;28;45852;-70
2023/04/20 02:44:33;;;;;;;;;1.25;1.25;;;;;22.19;37.14;100939.53;5075074;28;71961;-71
2023/04/20 02:46:58;;;;;;;;;2.00;1.00;;;;;22.19;36.99;100942.22;5075212;27;45465;-71
2023/04/20 02:49:24;;;;;;;;;0.50;0.50;;;;;22.16;36.86;100937.09;5076345;27;68025;-70
2023/04/20 02:51:49;;;;;;;;;2.00;1.00;;;;;22.18;37.08;100945.81;5074756;27;46131;-71
2023/04/20 02:54:15;;;;;;;;;1.75;1.00;;;;;22.14;36.76;100936.34;5077704;27;45378;-71
2023/04/20 02:56:40;;;;;;;;;3.00;1.50;;;;;22.18;37.32;100944.00;5074818;28;45379;-71
2023/04/20 02:59:06;;;;;;;;;1.00;1.00;;;;;22.17;36.82;100941.47;5074493;28;62912;-71
2023/04/20 03:01:31;;;;;;;;;0.50;0.00;;;;;22.17;36.67;100944.13;5076517;27;68498;-71
2023/04/20 03:03:57;;;;;;;;;1.00;1.00;;;;;22.19;37.11;100947.53;5057032;28;45412;-70
2023/04/20 03:06:22;;;;;;;;;1.00;1.00;;;;;22.15;37.24;100948.69;5072182;27;62313;-70
2023/04/20 03:08:47;;;;;;;;;1.25;1.25;;;;;22.15;37.00;100941.56;5073773;27;70252;-70
2023/04/20 03:11:13;;;;;;;;;1.25;1.25;;;;;22.15;37.17;100941.56;5076135;27;46031;-71
2023/04/20 03:13:38;;;;;;;;;1.75;0.75;;;;;22.14;37.23;100947.00;5059562;27;45485;-70
2023/04/20 03:16:04;;;;;;;;;1.00;0.25;;;;;22.17;36.91;100944.97;5076631;27;45398;-71
2023/04/20 03:18:30;;;;;;;;;1.25;1.25;;;;;22.15;36.57;100944.25;5074754;28;45562;-71
2023/04/20 03:20:55;;;;;;;;;1.00;1.00;;;;;22.14;37.22;100952.34;5071903;27;45510;-70
2023/04/20 03:23:21;;;;;;;;;1.00;1.00;;;;;22.09;37.22;100941.16;5060057;28;45694;-71
2023/04/20 03:25:47;;;;;;;;;1.00;0.50;;;;;22.16;36.92;100956.59;5074257;28;45528;-71
2023/04/20 03:28:14;;;;;;;;;3.00;3.00;;;;;22.14;36.74;100947.00;5076981;27;45569;-71
2023/04/20 03:30:40;;;;;;;;;2.25;1.00;;;;;22.13;36.92;100945.31;5065796;27;45704;-71
2023/04/20 03:33:05;;;;;;;;;2.75;2.50;;;;;22.15;36.79;100952.25;5076720;28;45822;-70
2023/04/20 03:35:30;;;;;;;;;2.00;0.50;;;;;22.13;37.19;100942.63;5071088;28;63715;-70
2023/04/20 03:37:56;;;;;;;;;2.00;2.00;;;;;22.12;37.17;100935.63;5076023;28;45315;-70
2023/04/20 03:40:21;;;;;;;;;2.25;1.00;;;;;22.14;36.69;100942.53;5077577;27;46632;-70
2023/04/20 03:42:46;;;;;;;;;1.00;1.00;;;;;22.15;37.13;100951.38;5076807;28;46305;-70
2023/04/20 03:45:12;;;;;;;;;1.00;1.00;;;;;22.13;37.11;100943.50;5074230;28;66082;-70
2023/04/20 03:47:37;;;;;;;;;2.00;1.25;;;;;22.15;37.09;100946.03;5053892;28;45520;-70
2023/04/20 03:50:03;;;;;;;;;1.00;1.00;;;;;22.11;36.70;100945.41;5073594;27;68391;-70
2023/04/20 03:52:28;;;;;;;;;2.25;1.00;;;;;22.13;37.15;100954.16;5077329;27;45564;-70
2023/04/20 03:54:53;;;;;;;;;1.00;1.00;;;;;22.14;36.40;100957.69;5075310;27;45362;-70
2023/04/20 03:57:19;;;;;;;;;1.50;1.25;;;;;22.13;36.68;100951.50;5058796;28;67131;-70
2023/04/20 03:59:44;;;;;;;;;3.75;3.00;;;;;22.10;36.71;100957.06;5074071;27;48067;-70
2023/04/20 04:02:12;;;;;;;;;2.00;2.00;;;;;22.11;36.86;100953.41;5074445;27;45478;-70
2023/04/20 04:04:37;;;;;;;;;1.00;1.00;;;;;22.11;36.75;100956.06;5067665;28;45469;-70
2023/04/20 04:07:02;;;;;;;;;1.00;1.00;;;;;22.12;36.75;100962.28;5072621;27;45549;-71
2023/04/20 04:09:28;;;;;;;;;0.50;0.25;;;;;22.12;36.92;100962.28;5077894;27;52421;-71
2023/04/20 04:11:53;;;;;;;;;0.50;0.50;;;;;22.10;36.90;100965.03;5072780;27;65352;-71
2023/04/20 04:14:18;;;;;;;;;1.00;1.00;;;;;22.10;36.31;100961.53;5075595;28;53788;-71
2023/04/20 04:16:44;;;;;;;;;2.00;1.00;;;;;22.09;36.54;100952.66;5076061;27;45761;-71
2023/04/20 04:19:09;;;;;;;;;1.50;0.50;;;;;22.07;36.82;100949.25;5076718;28;45430;-71
2023/04/20 04:21:35;;;;;;;;;2.50;1.50;;;;;22.09;36.60;100954.50;5073071;27;45497;-70
2023/04/20 04:24:00;;;;;;;;;1.50;1.25;;;;;22.05;36.91;100958.34;5060458;28;45311;-70
2023/04/20 04:26:30;;;;;;;;;1.50;1.50;;;;;22.09;36.52;100959.81;5075217;28;48415;-70
2023/04/20 04:28:56;;;;;;;;;1.50;0.50;;;;;22.08;36.94;100966.97;5057819;27;47274;-71
2023/04/20 04:31:22;;;;;;;;;1.50;1.50;;;;;22.10;36.72;100966.88;5051126;28;45795;-70
2023/04/20 04:33:48;;;;;;;;;0.50;0.50;;;;;22.08;36.35;100968.75;5071728;27;45495;-71
2023/04/20 04:36:14;;;;;;;;;0.25;0.25;;;;;22.09;36.72;100971.31;5068674;27;45724;-70
2023/04/20 04:38:40;;;;;;;;;3.75;1.75;;;;;22.03;36.83;100966.44;5072947;28;45448;-70
2023/04/20 04:41:06;;;;;;;;;2.25;0.50;;;;;22.07;36.65;100973.25;5078466;27;45862;-70
2023/04/20 04:43:32;;;;;;;;;2.25;2.00;;;;;22.08;36.49;100979.44;5079831;27;45554;-70
2023/04/20 04:45:57;;;;;;;;;1.00;1.00;;;;;22.08;36.36;100979.44;5074177;28;45285;-70
2023/04/20 04:48:23;;;;;;;;;2.00;0.50;;;;;22.08;36.76;100979.44;5078552;28;45428;-70
2023/04/20 04:50:48;;;;;;;;;1.75;1.00;;;;;22.08;36.68;100988.28;5075917;27;54914;-70
2023/04/20 04:53:13;;;;;;;;;2.00;2.00;;;;;22.05;36.62;100985.00;5076243;27;54992;-70
2023/04/20 04:55:39;;;;;;;;;1.00;0.25;;;;;22.07;36.58;100988.41;5081453;27;45552;-70
2023/04/20 04:58:04;;;;;;;;;3.00;1.00;;;;;22.07;36.17;100997.25;5083911;27;67845;-70
2023/04/20 05:00:30;;;;;;;;;1.25;1.25;;;;;22.08;36.42;100998.09;5081178;27;45414;-71
2023/04/20 05:02:56;;;;;;;;;2.75;1.00;;;;;22.07;36.87;100999.06;5077780;28;45477;-70
2023/04/20 05:05:21;;;;;;;;;1.00;1.00;;;;;22.02;36.40;100993.19;5082059;27;45610;-70
2023/04/20 05:07:47;;;;;;;;;1.50;1.50;;;;;22.05;36.32;101001.00;5077662;28;46299;-70
2023/04/20 05:10:12;;;;;;;;;1.00;1.00;;;;;22.05;36.36;101001.00;5081383;27;45501;-70
2023/04/20 05:12:38;;;;;;;;;3.00;1.00;;;;;22.03;36.45;100997.56;5084533;27;54056;-71
2023/04/20 05:15:04;;;;;;;;;1.25;0.25;;;;;22.03;36.69;101005.56;5063108;28;45695;-70
2023/04/20 05:17:30;;;;;;;;;2.75;1.50;;;;;22.02;36.21;101006.53;5070897;27;45499;-71
2023/04/20 05:19:55;;;;;;;;;1.00;0.50;;;;;22.05;36.28;101014.31;5082870;27;45628;-71
2023/04/20 05:22:21;;;;;;;;;3.00;2.00;;;;;22.03;36.19;101017.09;5060916;28;45851;-70
2023/04/20 05:24:46;;;;;;;;;1.00;1.00;;;;;22.04;36.53;101015.25;5074677;28;53864;-70
2023/04/20 05:27:11;;;;;;;;;1.25;1.00;;;;;21.98;36.67;101017.41;5053625;28;47675;-69
2023/04/20 05:29:37;;;;;;;;;3.50;3.00;;;;;22.05;36.71;101036.47;5073821;27;53395;-72
2023/04/20 05:32:03;;;;;;;;;3.25;3.25;;;;;22.00;36.01;101028.81;5073618;27;45469;-72
2023/04/20 05:34:28;;;;;;;;;4.00;2.75;;;;;22.03;36.19;101030.41;5051425;28;45850;-74
2023/04/20 05:36:55;;;;;;;;;5.25;3.25;;;;;22.00;36.01;101027.97;5061342;28;47117;-74
2023/04/20 05:39:21;;;;;;;;;1.75;1.75;;;;;21.97;36.19;101028.16;5082352;27;45437;-74
2023/04/20 05:41:46;;;;;;;;;3.25;3.25;;;;;21.94;35.60;101026.59;5078163;27;45557;-72
2023/04/20 05:44:11;;;;;;;;;5.25;3.25;;;;;21.93;35.60;101029.34;5073695;28;65904;-73
2023/04/20 05:46:37;;;;;;;;;7.75;3.25;;;;;21.93;35.65;101030.19;5074662;28;45585;-75
2023/04/20 05:49:02;;;;;;;;;8.25;4.00;;;;;21.87;35.55;101019.97;5077272;27;64585;-73
2023/04/20 05:51:32;;;;;;;;;3.50;3.00;;;;;21.86;35.51;101026.25;5075824;27;46978;-72
2023/04/20 05:53:57;;;;;;;;;6.25;4.00;;;;;21.86;35.34;101034.25;5076871;28;45820;-73
2023/04/20 05:56:23;;;;;;;;;4.00;3.00;;;;;21.85;34.82;101035.22;5076691;27;75696;-73
2023/04/20 05:58:48;;;;;;;;;6.00;3.75;;;;;21.82;35.43;101030.09;5057120;28;45572;-72
2023/04/20 06:01:13;;;;;;;;;4.50;3.50;;;;;21.77;34.61;101029.56;5081525;27;57167;-72
2023/04/20 06:03:39;;;;;;;;;3.50;3.50;;;;;21.75;34.64;101026.16;5083515;27;45437;-72
2023/04/20 06:06:04;;;;;;;;;4.50;4.50;;;;;21.74;34.89;101030.66;5076567;27;64509;-74
2023/04/20 06:08:30;;;;;;;;;4.75;4.75;;;;;21.72;34.89;101029.88;5063227;27;45987;-77
2023/04/20 06:10:56;;;;;;;;;6.50;5.50;;;;;21.70;34.76;101021.16;5073125;27;52473;-74
2023/04/20 06:13:21;;;;;;;;;4.00;3.00;;;;;21.67;34.39;101020.50;5074790;27;46885;-71
2023/04/20 06:15:46;;;;;;;;;3.00;3.00;;;;;21.64;34.60;101015.38;5076839;27;48257;-75
2023/04/20 06:18:12;;;;;;;;;4.75;4.00;;;;;21.68;34.49;101027.56;5056132;28;47169;-72
2023/04/20 06:20:38;;;;;;;;;5.00;3.50;;;;;21.65;34.24;101025.09;5068646;27;59754;-72
2023/04/20 06:23:03;;;;;;;;;5.25;4.00;;;;;21.64;34.54;101026.03;5077372;28;45449;-71
2023/04/20 06:25:29;;;;;;;;;5.00;4.00;;;;;21.63;34.56;101027.00;5071056;27;53465;-72
2023/04/20 06:27:54;;;;;;;;;6.00;4.50;;;;;21.60;34.54;101023.59;5067732;28;54672;-72
2023/04/20 06:30:19;;;;;;;;;7.00;4.00;;;;;21.63;34.08;101025.19;5075908;27;45533;-72
2023/04/20 06:32:45;;;;;;;;;6.25;2.50;;;;;21.65;34.14;101030.41;5061695;28;64240;-71
2023/04/20 06:35:10;;;;;;;;;3.50;3.50;;;;;21.64;34.12;101029.56;5076381;27;48647;-72
2023/04/20 06:37:35;;;;;;;;;6.25;4.00;;;;;21.66;34.19;101032.13;5078879;27;45385;-72
2023/04/20 06:40:06;;;;;;;;;3.75;3.00;;;;;21.66;34.53;101032.13;5071163;27;45607;-72
2023/04/20 06:42:32;;;;;;;;;4.00;3.00;;;;;21.66;34.55;101029.47;5070176;28;45495;-72
2023/04/20 06:44:57;;;;;;;;;6.00;3.00;;;;;21.69;34.36;101040.75;5072547;28;46708;-75
2023/04/20 06:47:30;;;;;;;;;4.25;3.00;;;;;21.69;34.33;101032.78;5077611;27;45710;-72
2023/04/20 06:50:03;;;;;;;;;4.75;3.00;;;;;21.72;34.05;101021.03;5078360;27;45301;-72
2023/04/20 06:52:30;;;;;;;;;3.75;3.75;;;;;21.75;34.57;101019.00;5076643;27;45233;-69
2023/04/20 06:54:57;;;;;;;;;5.00;4.00;;;;;21.79;34.25;101014.31;5077717;27;46437;-68
2023/04/20 06:57:22;;;;;;;;;4.50;3.00;;;;;21.81;34.21;101020.41;5077647;27;45268;-68
2023/04/20 06:59:47;;;;;;;;;4.00;3.00;;;;;21.80;34.27;101016.03;5076024;27;56419;-70
2023/04/20 07:02:13;;;;;;;;;5.25;5.00;;;;;21.86;34.32;101022.75;5072705;27;45492;-71
2023/04/20 07:04:38;;;;;;;;;5.50;4.00;;;;;21.86;34.74;101023.59;5077299;27;54070;-68
2023/04/20 07:07:03;;;;;;;;;3.50;2.25;;;;;21.89;34.80;101033.19;5076652;28;73734;-70
2023/04/20 07:09:28;;;;;;;;;3.00;3.00;;;;;21.91;34.80;101028.59;5058826;27;67082;-70
2023/04/20 07:11:55;;;;;;;;;8.75;3.00;;;;;21.92;34.46;101027.63;5070789;27;70560;-70
2023/04/20 07:14:20;;;;;;;;;2.25;2.25;;;;;21.93;34.47;101024.88;5078767;27;45800;-70
2023/04/20 07:16:46;;;;;;;;;3.50;3.50;;;;;21.97;34.88;101026.38;5069141;27;71299;-70
2023/04/20 07:19:11;;;;;;;;;6.25;4.00;;;;;21.97;34.50;101022.84;5064449;28;45616;-70
2023/04/20 07:21:36;;;;;;;;;3.00;3.00;;;;;21.98;34.61;101019.22;5071133;27;45468;-70
2023/04/20 07:24:02;;;;;;;;;4.00;2.00;;;;;21.99;34.58;101013.78;5065963;28;48346;-70
2023/04/20 07:26:27;;;;;;;;;5.75;3.00;;;;;22.02;34.62;101026.03;5077286;27;45394;-70
2023/04/20 07:28:53;;;;;;;;;3.25;2.25;;;;;22.05;35.03;101023.16;5075838;27;50193;-70
2023/04/20 07:31:18;;;;;;;;;7.50;3.50;;;;;22.03;34.40;101014.41;5074521;27;45658;-70
2023/04/20 07:33:43;;;;;;;;;3.00;1.25;;;;;22.07;34.78;101025.72;5074878;27;67372;-70
2023/04/20 07:36:09;;;;;;;;;4.00;2.00;;;;;22.08;35.15;101027.41;5077070;27;45439;-70
2023/04/20 07:38:35;;;;;;;;;3.25;3.00;;;;;22.07;34.29;101020.38;5076198;27;45354;-70
2023/04/20 07:41:00;;;;;;;;;5.00;3.00;;;;;22.09;34.86;101016.63;5066515;27;45354;-70
2023/04/20 07:43:25;;;;;;;;;5.00;2.25;;;;;22.09;34.46;101008.63;5076167;27;70853;-70
2023/04/20 07:45:51;;;;;;;;;4.25;3.25;;;;;22.12;34.73;101005.75;5067186;28;70298;-70
2023/04/20 07:48:16;;;;;;;;;5.25;3.50;;;;;22.11;34.80;101004.03;5057255;27;46187;-70
2023/04/20 07:50:42;;;;;;;;;4.75;2.00;;;;;22.12;34.85;101002.25;5073479;27;67217;-70
2023/04/20 07:53:07;;;;;;;;;2.00;2.00;;;;;22.14;35.10;100997.66;5076133;27;46290;-70
2023/04/20 07:55:32;;;;;;;;;1.50;1.50;;;;;22.14;34.43;100995.84;5072010;27;45467;-70
2023/04/20 07:57:59;;;;;;;;;3.25;2.75;;;;;22.17;35.00;101000.13;5078565;27;68957;-70
2023/04/20 08:00:24;;;;;;;;;4.00;1.25;;;;;22.12;34.75;100992.44;5076235;27;45544;-70
2023/04/20 08:02:50;;;;;;;;;4.00;2.25;;;;;22.17;34.49;100994.78;5073030;27;45288;-70
2023/04/20 08:05:15;;;;;;;;;2.25;1.50;;;;;22.19;34.56;101004.34;5070404;27;59423;-70
2023/04/20 08:07:40;;;;;;;;;2.75;2.25;;;;;22.22;34.82;100999.78;5077473;28;65602;-70
2023/04/20 08:10:06;;;;;;;;;2.00;2.00;;;;;22.20;34.70;100994.53;5077566;27;45253;-70
2023/04/20 08:12:32;;;;;;;;;4.75;2.25;;;;;22.21;34.68;100990.09;5080076;28;47041;-70
2023/04/20 08:15:00;;;;;;;;;3.00;3.00;;;;;22.21;34.94;100990.94;5072874;27;73611;-69
2023/04/20 08:17:26;;;;;;;;;4.75;3.00;;;;;22.23;34.77;100986.34;5079062;27;45783;-70
2023/04/20 08:19:52;;;;;;;;;3.25;3.25;;;;;22.25;34.71;100983.56;5059663;27;46278;-70
2023/04/20 08:22:17;;;;;;;;;3.00;3.00;;;;;22.24;34.81;100981.84;5080404;27;46523;-70
2023/04/20 08:24:42;;;;;;;;;2.25;2.25;;;;;22.26;34.98;100980.78;5081360;27;45313;-70
2023/04/20 08:27:08;;;;;;;;;5.00;3.00;;;;;22.27;34.97;100974.50;5077762;27;45796;-70
2023/04/20 08:29:33;;;;;;;;;2.75;1.75;;;;;22.27;34.49;100982.50;5078314;28;45387;-70
2023/04/20 08:31:58;;;;;;;;;4.00;3.00;;;;;22.27;34.34;100974.50;5075103;27;74027;-70
2023/04/20 08:34:24;;;;;;;;;3.00;2.25;;;;;22.26;34.79;100970.13;5056947;27;66669;-70
2023/04/20 08:36:50;;;;;;;;;3.75;3.75;;;;;22.28;34.86;100980.72;5056548;28;45339;-70
2023/04/20 08:39:18;;;;;;;;;4.75;3.25;;;;;22.28;34.78;100978.88;5081187;27;45452;-70
2023/04/20 08:41:44;;;;;;;;;6.50;3.00;;;;;22.29;34.70;100979.72;5071536;27;45546;-70
2023/04/20 08:44:10;;;;;;;;;2.25;2.25;;;;;22.29;34.80;100979.72;5080301;27;45360;-70
2023/04/20 08:46:37;;;;;;;;;1.75;1.75;;;;;22.30;34.72;100968.13;5075383;27;45405;-69
2023/04/20 08:49:02;;;;;;;;;1.50;1.50;;;;;22.30;34.39;100971.63;5078663;27;45445;-70
2023/04/20 08:51:28;;;;;;;;;3.00;2.25;;;;;22.31;34.52;100969.78;5075884;27;45375;-70
2023/04/20 08:53:55;;;;;;;;;3.00;3.00;;;;;22.28;34.75;100964.72;5081083;27;45417;-70
2023/04/20 08:56:32;;;;;;;;;3.25;3.25;;;;;22.27;34.74;100963.00;5057271;28;45367;-70
2023/04/20 08:58:57;;;;;;;;;3.25;3.25;;;;;22.31;34.38;100959.13;5081191;27;45331;-70
2023/04/20 09:01:27;;;;;;;;;5.50;2.75;;;;;22.29;34.67;100972.59;5069244;27;74858;-70
2023/04/20 09:03:52;;;;;;;;;2.75;2.75;;;;;22.29;34.75;100961.06;5077441;27;45467;-70
2023/04/20 09:06:17;;;;;;;;;3.00;3.00;;;;;22.27;34.28;100953.19;5071640;27;56402;-70
2023/04/20 09:08:44;;;;;;;;;5.00;3.00;;;;;22.29;34.86;100945.94;5081725;27;59287;-70
2023/04/20 09:11:24;;;;;;;;;3.25;3.00;;;;;22.30;34.60;100944.13;5077724;27;45435;-70
2023/04/20 09:14:03;;;;;;;;;3.00;3.00;;;;;22.32;34.74;100943.03;5080508;27;45793;-70
2023/04/20 09:16:30;;;;;;;;;5.00;3.25;;;;;22.31;34.79;100938.69;5085585;27;45561;-70
2023/04/20 09:18:56;;;;;;;;;3.25;3.25;;;;;22.32;34.63;100935.03;5063339;27;45924;-70
2023/04/20 09:21:23;;;;;;;;;4.00;2.00;;;;;22.33;34.49;100928.75;5077824;27;45494;-70
2023/04/20 09:24:15;;;;;;;;;2.75;2.75;;;;;22.33;34.35;100928.75;5056505;27;46108;-70
2023/04/20 09:26:40;;;;;;;;;3.00;1.25;;;;;22.31;34.61;100917.34;5076893;27;45379;-70
2023/04/20 09:29:15;;;;;;;;;4.25;2.25;;;;;22.32;34.79;100920.84;5079744;27;68677;-70
2023/04/20 09:31:41;;;;;;;;;2.25;2.25;;;;;22.33;34.34;100922.56;5077418;27;47218;-70
2023/04/20 09:34:06;;;;;;;;;3.25;2.75;;;;;22.32;34.67;100907.53;5081579;27;49879;-70
2023/04/20 09:36:46;;;;;;;;;3.75;3.50;;;;;22.32;34.49;100915.53;5072260;27;58800;-70
2023/04/20 09:39:22;;;;;;;;;3.00;2.00;;;;;22.31;34.58;100912.00;5057987;28;45378;-70
2023/04/20 09:41:49;;;;;;;;;4.50;3.00;;;;;22.31;34.74;100904.00;5071381;27;46357;-70
2023/04/20 09:44:16;;;;;;;;;4.00;4.00;;;;;22.33;34.64;100907.41;5081690;27;45322;-70
2023/04/20 09:46:41;;;;;;;;;4.25;3.25;;;;;22.32;34.24;100892.38;5075598;27;45586;-70
2023/04/20 09:49:08;;;;;;;;;3.25;3.25;;;;;22.32;34.57;100889.69;5059195;28;45525;-70
2023/04/20 09:51:35;;;;;;;;;2.50;2.50;;;;;22.34;34.68;100881.59;5076936;27;47511;-70
2023/04/20 09:54:02;;;;;;;;;4.00;3.75;;;;;22.32;34.62;100879.03;5081274;27;45426;-70
2023/04/20 09:56:29;;;;;;;;;6.75;3.00;;;;;22.34;34.37;100878.94;5077936;28;45507;-70
2023/04/20 09:58:55;;;;;;;;;3.50;3.50;;;;;22.29;34.40;100873.09;5080242;28;45643;-70
2023/04/20 10:01:21;;;;;;;;;3.75;3.00;;;;;22.28;34.83;100858.06;5076005;28;45416;-70
2023/04/20 10:03:48;;;;;;;;;4.75;4.00;;;;;22.29;34.32;100878.41;5074372;27;45643;-70
2023/04/20 10:06:21;;;;;;;;;4.00;3.00;;;;;22.30;34.52;100872.13;5076545;27;45466;-70
2023/04/20 10:08:48;;;;;;;;;3.00;3.00;;;;;22.32;34.57;100875.53;5059783;28;45460;-70
2023/04/20 10:11:34;;;;;;;;;4.50;3.25;;;;;22.31;34.26;100876.47;5075472;28;46302;-70
2023/04/20 10:14:13;;;;;;;;;2.50;2.00;;;;;22.27;34.14;100873.19;5080805;27;45897;-70
2023/04/20 10:16:38;;;;;;;;;3.75;3.75;;;;;22.26;34.73;100855.47;5073478;27;45450;-70
2023/04/20 10:19:03;;;;;;;;;6.00;4.00;;;;;22.28;34.40;100872.25;5071525;27;69551;-70
2023/04/20 10:21:31;;;;;;;;;4.75;3.50;;;;;22.26;34.57;100857.31;5077219;27;45520;-70
2023/04/20 10:23:59;;;;;;;;;3.00;2.75;;;;;22.29;34.26;100865.97;5080792;27;45280;-70
2023/04/20 10:26:35;;;;;;;;;3.25;3.25;;;;;22.28;34.37;100866.91;5075502;27;45336;-70
2023/04/20 10:29:01;;;;;;;;;3.00;2.00;;;;;22.27;34.52;100854.53;5079295;27;45623;-69
2023/04/20 10:31:37;;;;;;;;;5.00;4.00;;;;;22.28;34.42;100858.91;5069387;28;67690;-70
2023/04/20 10:34:03;;;;;;;;;3.00;3.00;;;;;22.27;34.44;100865.19;5077577;27;45528;-70
2023/04/20 10:36:35;;;;;;;;;6.25;3.25;;;;;22.29;34.27;100862.41;5075480;27;45509;-70
2023/04/20 10:39:13;;;;;;;;;3.75;3.00;;;;;22.29;34.56;100857.09;5062527;28;45487;-70
2023/04/20 10:41:50;;;;;;;;;5.25;4.25;;;;;22.27;34.09;100859.03;5078738;27;45513;-70
2023/04/20 10:44:15;;;;;;;;;4.00;2.00;;;;;22.29;34.14;100860.63;5080768;27;45484;-70
2023/04/20 10:46:41;;;;;;;;;4.50;3.25;;;;;22.28;34.25;100852.75;5074010;28;60438;-69
2023/04/20 10:49:06;;;;;;;;;5.00;3.50;;;;;22.28;34.66;100858.91;5078437;28;70536;-70
2023/04/20 10:51:31;;;;;;;;;4.00;3.00;;;;;22.31;34.56;100857.81;5075387;27;45458;-70
2023/04/20 10:54:05;;;;;;;;;2.50;2.50;;;;;22.31;34.19;100855.16;5071239;27;45323;-70
2023/04/20 10:56:37;;;;;;;;;6.50;3.25;;;;;22.33;34.32;100850.59;5070498;27;45308;-70
2023/04/20 10:59:10;;;;;;;;;5.25;3.00;;;;;22.31;34.29;100855.16;5075769;27;45414;-70
2023/04/20 11:01:36;;;;;;;;;4.25;3.75;;;;;22.31;34.44;100868.47;5072720;27;45509;-70
2023/04/20 11:04:01;;;;;;;;;3.00;3.00;;;;;22.31;34.63;100858.69;5077326;27;45581;-70
2023/04/20 11:06:27;;;;;;;;;6.00;4.75;;;;;22.32;34.54;100862.19;5072543;27;45600;-70
2023/04/20 11:08:52;;;;;;;;;3.75;2.25;;;;;22.31;34.61;100852.47;5078939;27;45327;-70
2023/04/20 11:11:24;;;;;;;;;4.75;2.25;;;;;22.31;34.10;100864.03;5076940;27;46153;-70
2023/04/20 11:13:49;;;;;;;;;4.00;3.75;;;;;22.29;34.29;100854.41;5078947;27;46819;-70
2023/04/20 11:16:16;;;;;;;;;2.75;2.00;;;;;22.29;34.19;100851.75;5064342;27;65762;-70
2023/04/20 11:18:53;;;;;;;;;3.75;2.25;;;;;22.32;34.39;100854.19;5070317;27;45337;-70
2023/04/20 11:21:22;;;;;;;;;7.00;3.25;;;;;22.31;34.28;100857.81;5056357;28;47170;-70